sensor_id;sensor_type;location;lat;lon;timestamp;pressure;altitude;pressure_sealevel;temperature;humidity
70968;BME280;58629;48.808;8.820;2023-05-13T00:02:12;97098.38;;;10.40;98.54
70968;BME280;58629;48.808;8.820;2023-05-13T00:04:38;97101.84;;;10.37;98.61
70968;BME280;58629;48.808;8.820;2023-05-13T00:07:03;97106.03;;;10.34;99.15
70968;BME280;58629;48.808;8.820;2023-05-13T00:09:29;97098.94;;;10.31;99.46
70968;BME280;58629;48.808;8.820;2023-05-13T00:11:54;97104.22;;;10.31;99.01
70968;BME280;58629;48.808;8.820;2023-05-13T00:14:19;97100.81;;;10.31;98.34
70968;BME280;58629;48.808;8.820;2023-05-13T00:16:46;97097.06;;;10.28;98.02
70968;BME280;58629;48.808;8.820;2023-05-13T00:19:11;97099.84;;;10.21;97.62
70968;BME280;58629;48.808;8.820;2023-05-13T00:21:37;97106.41;;;10.13;98.55
70968;BME280;58629;48.808;8.820;2023-05-13T00:24:02;97105.50;;;9.97;97.11
70968;BME280;58629;48.808;8.820;2023-05-13T00:26:28;97107.44;;;9.93;97.44
70968;BME280;58629;48.808;8.820;2023-05-13T00:28:54;97103.75;;;9.87;97.94
70968;BME280;58629;48.808;8.820;2023-05-13T00:31:19;97101.69;;;9.75;97.59
70968;BME280;58629;48.808;8.820;2023-05-13T00:33:45;97105.75;;;9.56;99.47
70968;BME280;58629;48.808;8.820;2023-05-13T00:36:10;97107.78;;;9.45;100.00
70968;BME280;58629;48.808;8.820;2023-05-13T00:38:36;97112.41;;;9.37;100.00
70968;BME280;58629;48.808;8.820;2023-05-13T00:41:02;97116.00;;;9.24;100.00
70968;BME280;58629;48.808;8.820;2023-05-13T00:43:28;97109.47;;;9.02;100.00
70968;BME280;58629;48.808;8.820;2023-05-13T00:45:53;97113.47;;;8.83;100.00
70968;BME280;58629;48.808;8.820;2023-05-13T00:48:19;97115.41;;;8.79;100.00
70968;BME280;58629;48.808;8.820;2023-05-13T00:50:45;97104.84;;;8.79;100.00
70968;BME280;58629;48.808;8.820;2023-05-13T00:53:11;97099.47;;;8.86;100.00
70968;BME280;58629;48.808;8.820;2023-05-13T00:55:43;97106.25;;;8.87;100.00
70968;BME280;58629;48.808;8.820;2023-05-13T00:58:09;97104.31;;;8.91;100.00
70968;BME280;58629;48.808;8.820;2023-05-13T01:00:46;97106.16;;;8.94;100.00
70968;BME280;58629;48.808;8.820;2023-05-13T01:03:20;97108.84;;;8.91;100.00
70968;BME280;58629;48.808;8.820;2023-05-13T01:06:03;97103.97;;;8.89;100.00
70968;BME280;58629;48.808;8.820;2023-05-13T01:11:05;97105.69;;;9.03;100.00
70968;BME280;58629;48.808;8.820;2023-05-13T01:13:37;97112.38;;;9.11;100.00
70968;BME280;58629;48.808;8.820;2023-05-13T01:16:25;97114.56;;;9.16;100.00
70968;BME280;58629;48.808;8.820;2023-05-13T01:19:01;97112.66;;;9.20;100.00
70968;BME280;58629;48.808;8.820;2023-05-13T01:21:34;97109.94;;;9.27;100.00
70968;BME280;58629;48.808;8.820;2023-05-13T01:23:59;97109.88;;;9.30;100.00
70968;BME280;58629;48.808;8.820;2023-05-13T01:26:25;97114.28;;;9.37;100.00
70968;BME280;58629;48.808;8.820;2023-05-13T01:28:50;97116.50;;;9.42;100.00
70968;BME280;58629;48.808;8.820;2023-05-13T01:31:16;97114.56;;;9.46;100.00
70968;BME280;58629;48.808;8.820;2023-05-13T01:33:43;97117.91;;;9.50;100.00
70968;BME280;58629;48.808;8.820;2023-05-13T01:36:09;97106.53;;;9.53;100.00
70968;BME280;58629;48.808;8.820;2023-05-13T01:38:35;97112.91;;;9.55;100.00
70968;BME280;58629;48.808;8.820;2023-05-13T01:41:01;97103.44;;;9.58;100.00
70968;BME280;58629;48.808;8.820;2023-05-13T01:43:26;97106.44;;;9.60;100.00
70968;BME280;58629;48.808;8.820;2023-05-13T01:45:52;97110.91;;;9.63;100.00
70968;BME280;58629;48.808;8.820;2023-05-13T01:48:17;97107.56;;;9.63;100.00
70968;BME280;58629;48.808;8.820;2023-05-13T01:50:43;97107.56;;;9.63;100.00
70968;BME280;58629;48.808;8.820;2023-05-13T01:53:09;97116.22;;;9.63;100.00
70968;BME280;58629;48.808;8.820;2023-05-13T01:55:34;97115.47;;;9.63;100.00
70968;BME280;58629;48.808;8.820;2023-05-13T01:57:59;97115.91;;;9.57;100.00
70968;BME280;58629;48.808;8.820;2023-05-13T02:00:24;97115.97;;;9.54;100.00
70968;BME280;58629;48.808;8.820;2023-05-13T02:02:50;97120.50;;;9.53;100.00
70968;BME280;58629;48.808;8.820;2023-05-13T02:05:15;97112.16;;;9.55;100.00
70968;BME280;58629;48.808;8.820;2023-05-13T02:07:41;97115.56;;;9.55;100.00
70968;BME280;58629;48.808;8.820;2023-05-13T02:10:06;97125.38;;;9.55;100.00
70968;BME280;58629;48.808;8.820;2023-05-13T02:12:32;97114.50;;;9.49;100.00
70968;BME280;58629;48.808;8.820;2023-05-13T02:14:57;97117.56;;;9.48;100.00
70968;BME280;58629;48.808;8.820;2023-05-13T02:17:22;97124.16;;;9.36;100.00
70968;BME280;58629;48.808;8.820;2023-05-13T02:19:48;97121.56;;;9.33;100.00
70968;BME280;58629;48.808;8.820;2023-05-13T02:22:13;97123.50;;;9.29;100.00
70968;BME280;58629;48.808;8.820;2023-05-13T02:24:38;97120.91;;;9.22;100.00
70968;BME280;58629;48.808;8.820;2023-05-13T02:27:04;97124.44;;;9.12;100.00
70968;BME280;58629;48.808;8.820;2023-05-13T02:29:29;97118.50;;;9.04;100.00
70968;BME280;58629;48.808;8.820;2023-05-13T02:31:55;97124.44;;;8.78;100.00
70968;BME280;58629;48.808;8.820;2023-05-13T02:34:20;97120.13;;;8.61;100.00
70968;BME280;58629;48.808;8.820;2023-05-13T02:36:45;97119.00;;;8.58;100.00
70968;BME280;58629;48.808;8.820;2023-05-13T02:39:12;97122.81;;;8.54;100.00
70968;BME280;58629;48.808;8.820;2023-05-13T02:41:38;97124.72;;;8.53;100.00
70968;BME280;58629;48.808;8.820;2023-05-13T02:44:03;97115.72;;;8.47;100.00
70968;BME280;58629;48.808;8.820;2023-05-13T02:46:28;97120.22;;;8.50;100.00
70968;BME280;58629;48.808;8.820;2023-05-13T02:48:54;97119.44;;;8.53;100.00
70968;BME280;58629;48.808;8.820;2023-05-13T02:51:19;97117.94;;;8.52;100.00
70968;BME280;58629;48.808;8.820;2023-05-13T02:53:44;97118.31;;;8.51;100.00
70968;BME280;58629;48.808;8.820;2023-05-13T02:56:10;97120.22;;;8.50;100.00
70968;BME280;58629;48.808;8.820;2023-05-13T02:58:35;97124.72;;;8.50;100.00
70968;BME280;58629;48.808;8.820;2023-05-13T03:01:00;97116.47;;;8.48;100.00
70968;BME280;58629;48.808;8.820;2023-05-13T03:03:26;97120.66;;;8.45;100.00
70968;BME280;58629;48.808;8.820;2023-05-13T03:05:51;97119.94;;;8.41;100.00
70968;BME280;58629;48.808;8.820;2023-05-13T03:08:16;97124.19;;;8.32;100.00
70968;BME280;58629;48.808;8.820;2023-05-13T03:10:42;97124.91;;;8.32;100.00
70968;BME280;58629;48.808;8.820;2023-05-13T03:13:07;97125.34;;;8.24;100.00
70968;BME280;58629;48.808;8.820;2023-05-13T03:15:32;97129.91;;;8.16;100.00
70968;BME280;58629;48.808;8.820;2023-05-13T03:17:57;97117.91;;;8.12;100.00
70968;BME280;58629;48.808;8.820;2023-05-13T03:20:23;97126.22;;;8.07;100.00
70968;BME280;58629;48.808;8.820;2023-05-13T03:22:48;97125.97;;;7.94;100.00
70968;BME280;58629;48.808;8.820;2023-05-13T03:25:13;97128.69;;;7.76;100.00
70968;BME280;58629;48.808;8.820;2023-05-13T03:27:39;97131.81;;;7.64;100.00
70968;BME280;58629;48.808;8.820;2023-05-13T03:30:05;97127.34;;;7.54;100.00
70968;BME280;58629;48.808;8.820;2023-05-13T03:32:30;97133.44;;;7.44;100.00
70968;BME280;58629;48.808;8.820;2023-05-13T03:34:57;97132.72;;;7.33;100.00
70968;BME280;58629;48.808;8.820;2023-05-13T03:37:23;97136.16;;;7.27;100.00
70968;BME280;58629;48.808;8.820;2023-05-13T03:39:49;97136.19;;;7.16;100.00
70968;BME280;58629;48.808;8.820;2023-05-13T03:42:14;97132.84;;;7.09;100.00
70968;BME280;58629;48.808;8.820;2023-05-13T03:44:39;97139.66;;;7.03;100.00
70968;BME280;58629;48.808;8.820;2023-05-13T03:47:05;97142.66;;;7.01;100.00
70968;BME280;58629;48.808;8.820;2023-05-13T03:49:30;97138.50;;;7.03;100.00
70968;BME280;58629;48.808;8.820;2023-05-13T03:51:55;97142.66;;;7.05;100.00
70968;BME280;58629;48.808;8.820;2023-05-13T03:54:21;97144.53;;;7.04;100.00
70968;BME280;58629;48.808;8.820;2023-05-13T03:56:46;97138.50;;;7.03;100.00
70968;BME280;58629;48.808;8.820;2023-05-13T03:59:11;97154.66;;;7.06;100.00
70968;BME280;58629;48.808;8.820;2023-05-13T04:01:38;97152.03;;;7.13;100.00
70968;BME280;58629;48.808;8.820;2023-05-13T04:04:03;97155.03;;;7.15;100.00
70968;BME280;58629;48.808;8.820;2023-05-13T04:06:29;97151.22;;;7.19;100.00
70968;BME280;58629;48.808;8.820;2023-05-13T04:08:56;97151.22;;;7.23;100.00
70968;BME280;58629;48.808;8.820;2023-05-13T04:11:21;97152.72;;;7.24;100.00
70968;BME280;58629;48.808;8.820;2023-05-13T04:13:46;97147.06;;;7.29;100.00
70968;BME280;58629;48.808;8.820;2023-05-13T04:16:11;97145.53;;;7.31;100.00
70968;BME280;58629;48.808;8.820;2023-05-13T04:18:38;97143.28;;;7.37;100.00
70968;BME280;58629;48.808;8.820;2023-05-13T04:21:07;97152.25;;;7.46;100.00
70968;BME280;58629;48.808;8.820;2023-05-13T04:23:33;97158.63;;;7.52;100.00
70968;BME280;58629;48.808;8.820;2023-05-13T04:25:58;97146.53;;;7.58;100.00
70968;BME280;58629;48.808;8.820;2023-05-13T04:28:23;97154.00;;;7.70;100.00
70968;BME280;58629;48.808;8.820;2023-05-13T04:30:48;97145.63;;;7.79;100.00
70968;BME280;58629;48.808;8.820;2023-05-13T04:33:14;97145.25;;;7.84;100.00
70968;BME280;58629;48.808;8.820;2023-05-13T04:35:39;97150.78;;;7.97;100.00
70968;BME280;58629;48.808;8.820;2023-05-13T04:38:04;97153.00;;;8.05;100.00
70968;BME280;58629;48.808;8.820;2023-05-13T04:40:30;97155.97;;;8.11;100.00
70968;BME280;58629;48.808;8.820;2023-05-13T04:42:56;97158.91;;;8.20;100.00
70968;BME280;58629;48.808;8.820;2023-05-13T04:45:21;97161.13;;;8.28;100.00
70968;BME280;58629;48.808;8.820;2023-05-13T04:47:47;97161.16;;;8.21;100.00
70968;BME280;58629;48.808;8.820;2023-05-13T04:50:13;97152.13;;;8.26;100.00
70968;BME280;58629;48.808;8.820;2023-05-13T04:52:38;97162.63;;;8.29;100.00
70968;BME280;58629;48.808;8.820;2023-05-13T04:55:04;97165.53;;;8.42;100.00
70968;BME280;58629;48.808;8.820;2023-05-13T04:57:29;97161.72;;;8.46;100.00
70968;BME280;58629;48.808;8.820;2023-05-13T04:59:55;97171.13;;;8.51;100.00
70968;BME280;58629;48.808;8.820;2023-05-13T05:02:20;97172.19;;;8.57;100.00
70968;BME280;58629;48.808;8.820;2023-05-13T05:04:45;97169.56;;;8.57;100.00
70968;BME280;58629;48.808;8.820;2023-05-13T05:07:13;97164.22;;;8.60;100.00
70968;BME280;58629;48.808;8.820;2023-05-13T05:09:38;97168.69;;;8.67;100.00
70968;BME280;58629;48.808;8.820;2023-05-13T05:12:03;97178.44;;;8.73;100.00
70968;BME280;58629;48.808;8.820;2023-05-13T05:14:29;97177.19;;;8.85;100.00
70968;BME280;58629;48.808;8.820;2023-05-13T05:16:55;97179.72;;;8.96;100.00
70968;BME280;58629;48.808;8.820;2023-05-13T05:19:21;97187.56;;;9.03;100.00
70968;BME280;58629;48.808;8.820;2023-05-13T05:21:49;97188.97;;;9.14;100.00
70968;BME280;58629;48.808;8.820;2023-05-13T05:24:15;97191.91;;;9.20;100.00
70968;BME280;58629;48.808;8.820;2023-05-13T05:26:40;97199.41;;;9.25;100.00
70968;BME280;58629;48.808;8.820;2023-05-13T05:29:05;97192.91;;;9.29;100.00
70968;BME280;58629;48.808;8.820;2023-05-13T05:31:31;97194.84;;;9.25;100.00
70968;BME280;58629;48.808;8.820;2023-05-13T05:33:56;97206.88;;;9.30;100.00
70968;BME280;58629;48.808;8.820;2023-05-13T05:36:21;97204.50;;;9.39;100.00
70968;BME280;58629;48.808;8.820;2023-05-13T05:38:47;97206.72;;;9.44;100.00
70968;BME280;58629;48.808;8.820;2023-05-13T05:41:12;97204.78;;;9.48;100.00
70968;BME280;58629;48.808;8.820;2023-05-13T05:43:38;97201.78;;;9.46;100.00
70968;BME280;58629;48.808;8.820;2023-05-13T05:46:03;97203.22;;;9.54;100.00
70968;BME280;58629;48.808;8.820;2023-05-13T05:48:29;97209.16;;;9.61;100.00
70968;BME280;58629;48.808;8.820;2023-05-13T05:50:54;97208.84;;;9.56;98.78
70968;BME280;58629;48.808;8.820;2023-05-13T05:53:20;97210.38;;;9.53;96.73
70968;BME280;58629;48.808;8.820;2023-05-13T05:55:46;97214.38;;;9.65;98.00
70968;BME280;58629;48.808;8.820;2023-05-13T05:58:13;97212.03;;;9.71;97.37
70968;BME280;58629;48.808;8.820;2023-05-13T06:00:39;97215.00;;;9.76;97.32
70968;BME280;58629;48.808;8.820;2023-05-13T06:03:04;97216.84;;;9.79;96.87
70968;BME280;58629;48.808;8.820;2023-05-13T06:05:30;97216.78;;;9.86;97.41
70968;BME280;58629;48.808;8.820;2023-05-13T06:07:55;97224.00;;;9.82;95.13
70968;BME280;58629;48.808;8.820;2023-05-13T06:10:20;97218.38;;;9.80;94.33
70968;BME280;58629;48.808;8.820;2023-05-13T06:12:46;97216.78;;;9.86;95.70
70968;BME280;58629;48.808;8.820;2023-05-13T06:15:11;97210.63;;;9.93;95.79
70968;BME280;58629;48.808;8.820;2023-05-13T06:17:37;97209.44;;;9.97;95.01
70968;BME280;58629;48.808;8.820;2023-05-13T06:20:02;97212.06;;;9.97;92.80
70968;BME280;58629;48.808;8.820;2023-05-13T06:22:28;97213.88;;;10.04;93.61
70968;BME280;58629;48.808;8.820;2023-05-13T06:24:53;97218.72;;;10.09;93.62
70968;BME280;58629;48.808;8.820;2023-05-13T06:27:19;97213.03;;;10.10;93.30
70968;BME280;58629;48.808;8.820;2023-05-13T06:29:44;97222.06;;;10.13;93.72
70968;BME280;58629;48.808;8.820;2023-05-13T06:32:09;97203.84;;;10.18;92.93
70968;BME280;58629;48.808;8.820;2023-05-13T06:34:35;97215.59;;;10.17;92.26
70968;BME280;58629;48.808;8.820;2023-05-13T06:37:00;97217.00;;;10.25;91.75
70968;BME280;58629;48.808;8.820;2023-05-13T06:39:25;97220.31;;;10.29;93.29
70968;BME280;58629;48.808;8.820;2023-05-13T06:41:51;97227.00;;;10.37;91.96
70968;BME280;58629;48.808;8.820;2023-05-13T06:44:16;97221.59;;;10.44;92.13
70968;BME280;58629;48.808;8.820;2023-05-13T06:46:41;97224.53;;;10.50;91.95
70968;BME280;58629;48.808;8.820;2023-05-13T06:49:06;97230.81;;;10.60;92.16
70968;BME280;58629;48.808;8.820;2023-05-13T06:51:32;97223.97;;;10.62;91.25
70968;BME280;58629;48.808;8.820;2023-05-13T06:53:59;97229.09;;;10.73;90.31
70968;BME280;58629;48.808;8.820;2023-05-13T06:56:24;97235.75;;;10.81;89.05
70968;BME280;58629;48.808;8.820;2023-05-13T06:58:50;97232.34;;;10.80;87.27
70968;BME280;58629;48.808;8.820;2023-05-13T07:01:15;97229.88;;;10.70;86.50
70968;BME280;58629;48.808;8.820;2023-05-13T07:03:41;97235.00;;;10.80;88.83
70968;BME280;58629;48.808;8.820;2023-05-13T07:06:07;97234.59;;;10.82;87.46
70968;BME280;58629;48.808;8.820;2023-05-13T07:08:32;97234.66;;;10.78;86.97
70968;BME280;58629;48.808;8.820;2023-05-13T07:10:57;97237.06;;;10.92;87.58
70968;BME280;58629;48.808;8.820;2023-05-13T07:13:23;97232.31;;;11.03;87.77
70968;BME280;58629;48.808;8.820;2023-05-13T07:15:48;97224.41;;;11.23;87.91
70968;BME280;58629;48.808;8.820;2023-05-13T07:18:14;97231.63;;;11.42;86.54
70968;BME280;58629;48.808;8.820;2023-05-13T07:20:39;97226.91;;;11.50;85.56
70968;BME280;58629;48.808;8.820;2023-05-13T07:23:04;97230.41;;;11.66;85.55
70968;BME280;58629;48.808;8.820;2023-05-13T07:25:30;97228.69;;;11.76;85.96
70968;BME280;58629;48.808;8.820;2023-05-13T07:27:55;97242.53;;;11.83;84.94
70968;BME280;58629;48.808;8.820;2023-05-13T07:30:20;97238.88;;;11.77;82.39
70968;BME280;58629;48.808;8.820;2023-05-13T07:32:46;97236.81;;;11.65;81.57
70968;BME280;58629;48.808;8.820;2023-05-13T07:35:11;97238.13;;;11.77;83.85
70968;BME280;58629;48.808;8.820;2023-05-13T07:37:36;97236.81;;;11.65;83.02
70968;BME280;58629;48.808;8.820;2023-05-13T07:40:06;97237.44;;;11.73;82.86
70968;BME280;58629;48.808;8.820;2023-05-13T07:42:31;97233.31;;;11.72;82.48
70968;BME280;58629;48.808;8.820;2023-05-13T07:44:57;97235.34;;;11.84;81.87
70968;BME280;58629;48.808;8.820;2023-05-13T07:47:22;97228.22;;;11.97;83.21
70968;BME280;58629;48.808;8.820;2023-05-13T07:49:48;97230.06;;;12.00;81.98
70968;BME280;58629;48.808;8.820;2023-05-13T07:52:13;97231.66;;;12.13;83.11
70968;BME280;58629;48.808;8.820;2023-05-13T07:54:39;97230.44;;;12.18;81.00
70968;BME280;58629;48.808;8.820;2023-05-13T07:57:04;97233.81;;;12.18;82.48
70968;BME280;58629;48.808;8.820;2023-05-13T07:59:29;97227.28;;;12.23;82.70
70968;BME280;58629;48.808;8.820;2023-05-13T08:01:55;97236.13;;;12.16;81.33
70968;BME280;58629;48.808;8.820;2023-05-13T08:04:20;97236.72;;;12.24;81.25
70968;BME280;58629;48.808;8.820;2023-05-13T08:06:45;97234.91;;;12.21;81.07
70968;BME280;58629;48.808;8.820;2023-05-13T08:09:10;97234.16;;;12.20;80.83
70968;BME280;58629;48.808;8.820;2023-05-13T08:11:36;97236.38;;;12.06;80.61
70968;BME280;58629;48.808;8.820;2023-05-13T08:14:03;97241.44;;;12.16;81.50
70968;BME280;58629;48.808;8.820;2023-05-13T08:16:28;97244.84;;;12.17;82.02
70968;BME280;58629;48.808;8.820;2023-05-13T08:18:54;97236.56;;;12.15;80.96
70968;BME280;58629;48.808;8.820;2023-05-13T08:21:19;97235.81;;;12.31;83.32
70968;BME280;58629;48.808;8.820;2023-05-13T08:23:44;97240.06;;;12.44;85.23
70968;BME280;58629;48.808;8.820;2023-05-13T08:26:09;97237.81;;;12.59;82.78
70968;BME280;58629;48.808;8.820;2023-05-13T08:28:35;97240.44;;;12.91;84.85
70968;BME280;58629;48.808;8.820;2023-05-13T08:31:02;97247.25;;;12.76;79.13
70968;BME280;58629;48.808;8.820;2023-05-13T08:33:30;97240.34;;;12.94;79.15
70968;BME280;58629;48.808;8.820;2023-05-13T08:35:56;97245.34;;;13.09;82.28
70968;BME280;58629;48.808;8.820;2023-05-13T08:38:22;97248.94;;;13.31;81.56
70968;BME280;58629;48.808;8.820;2023-05-13T08:40:47;97247.91;;;13.12;78.78
70968;BME280;58629;48.808;8.820;2023-05-13T08:43:14;97249.72;;;13.44;80.75
70968;BME280;58629;48.808;8.820;2023-05-13T08:45:40;97245.16;;;13.57;77.90
70968;BME280;58629;48.808;8.820;2023-05-13T08:48:06;97242.88;;;13.84;78.35
70968;BME280;58629;48.808;8.820;2023-05-13T08:50:32;97247.06;;;14.10;78.76
70968;BME280;58629;48.808;8.820;2023-05-13T08:52:58;97244.09;;;14.08;75.60
70968;BME280;58629;48.808;8.820;2023-05-13T08:55:26;97240.03;;;14.04;73.54
70968;BME280;58629;48.808;8.820;2023-05-13T08:57:52;97248.06;;;13.75;72.89
70968;BME280;58629;48.808;8.820;2023-05-13T09:00:17;97249.81;;;13.94;75.40
70968;BME280;58629;48.808;8.820;2023-05-13T09:02:43;97251.53;;;13.88;75.37
70968;BME280;58629;48.808;8.820;2023-05-13T09:05:09;97248.28;;;13.68;72.91
70968;BME280;58629;48.808;8.820;2023-05-13T09:07:35;97252.34;;;13.72;74.45
70968;BME280;58629;48.808;8.820;2023-05-13T09:10:02;97256.13;;;14.00;77.14
70968;BME280;58629;48.808;8.820;2023-05-13T09:12:44;97255.28;;;14.28;77.12
70968;BME280;58629;48.808;8.820;2023-05-13T09:15:14;97257.47;;;14.05;73.05
70968;BME280;58629;48.808;8.820;2023-05-13T09:17:41;97254.41;;;13.93;72.74
70968;BME280;58629;48.808;8.820;2023-05-13T09:20:09;97258.03;;;14.12;71.49
70968;BME280;58629;48.808;8.820;2023-05-13T09:22:36;97267.13;;;14.40;75.97
70968;BME280;58629;48.808;8.820;2023-05-13T09:25:04;97252.50;;;14.57;74.87
70968;BME280;58629;48.808;8.820;2023-05-13T09:27:40;97259.19;;;14.74;74.32
70968;BME280;58629;48.808;8.820;2023-05-13T09:30:06;97266.25;;;14.43;73.04
70968;BME280;58629;48.808;8.820;2023-05-13T09:32:32;97255.59;;;14.55;74.53
70968;BME280;58629;48.808;8.820;2023-05-13T09:35:07;97262.75;;;14.33;69.18
70968;BME280;58629;48.808;8.820;2023-05-13T09:37:34;97261.63;;;14.18;71.06
70968;BME280;58629;48.808;8.820;2023-05-13T09:39:59;97265.38;;;14.21;72.28
70968;BME280;58629;48.808;8.820;2023-05-13T09:42:25;97264.31;;;14.06;70.77
70968;BME280;58629;48.808;8.820;2023-05-13T09:44:50;97267.81;;;14.03;71.64
70968;BME280;58629;48.808;8.820;2023-05-13T09:47:16;97260.75;;;13.71;70.48
70968;BME280;58629;48.808;8.820;2023-05-13T09:49:44;97266.31;;;13.89;74.31
70968;BME280;58629;48.808;8.820;2023-05-13T09:52:10;97272.84;;;13.59;73.26
70968;BME280;58629;48.808;8.820;2023-05-13T09:54:39;97270.94;;;13.60;72.96
70968;BME280;58629;48.808;8.820;2023-05-13T09:57:04;97277.03;;;13.73;74.76
70968;BME280;58629;48.808;8.820;2023-05-13T09:59:33;97270.72;;;13.67;74.98
70968;BME280;58629;48.808;8.820;2023-05-13T10:02:04;97279.38;;;13.71;74.90
70968;BME280;58629;48.808;8.820;2023-05-13T10:04:30;97286.63;;;13.70;73.04
70968;BME280;58629;48.808;8.820;2023-05-13T10:06:57;97273.13;;;13.90;74.16
70968;BME280;58629;48.808;8.820;2023-05-13T10:09:23;97278.16;;;14.01;74.06
70968;BME280;58629;48.808;8.820;2023-05-13T10:11:51;97280.72;;;14.17;74.38
70968;BME280;58629;48.808;8.820;2023-05-13T10:14:17;97274.75;;;14.00;70.06
70968;BME280;58629;48.808;8.820;2023-05-13T10:16:43;97274.13;;;14.21;73.57
70968;BME280;58629;48.808;8.820;2023-05-13T10:19:09;97283.41;;;14.54;74.19
70968;BME280;58629;48.808;8.820;2023-05-13T10:21:36;97281.50;;;14.30;70.87
70968;BME280;58629;48.808;8.820;2023-05-13T10:24:02;97282.56;;;14.32;71.34
70968;BME280;58629;48.808;8.820;2023-05-13T10:26:30;97282.56;;;14.57;71.30
70968;BME280;58629;48.808;8.820;2023-05-13T10:28:56;97277.78;;;14.40;69.62
70968;BME280;58629;48.808;8.820;2023-05-13T10:31:22;97279.06;;;14.35;73.59
70968;BME280;58629;48.808;8.820;2023-05-13T10:33:47;97274.38;;;14.39;70.31
70968;BME280;58629;48.808;8.820;2023-05-13T10:41:58;97276.41;;;14.48;71.90
70968;BME280;58629;48.808;8.820;2023-05-13T10:44:31;97275.19;;;14.24;72.00
70968;BME280;58629;48.808;8.820;2023-05-13T10:46:57;97279.78;;;14.48;72.63
70968;BME280;58629;48.808;8.820;2023-05-13T10:49:22;97279.56;;;14.68;72.63
70968;BME280;58629;48.808;8.820;2023-05-13T10:51:49;97284.09;;;14.93;71.84
70968;BME280;58629;48.808;8.820;2023-05-13T10:54:19;97284.31;;;14.86;70.75
70968;BME280;58629;48.808;8.820;2023-05-13T10:56:45;97283.06;;;14.77;70.53
70968;BME280;58629;48.808;8.820;2023-05-13T10:59:20;97278.78;;;14.93;70.62
70968;BME280;58629;48.808;8.820;2023-05-13T11:01:47;97284.91;;;15.15;71.45
70968;BME280;58629;48.808;8.820;2023-05-13T11:04:15;97278.53;;;15.34;71.04
70968;BME280;58629;48.808;8.820;2023-05-13T11:06:42;97280.34;;;15.37;69.19
70968;BME280;58629;48.808;8.820;2023-05-13T11:09:27;97290.09;;;15.18;67.25
70968;BME280;58629;48.808;8.820;2023-05-13T11:11:55;97281.22;;;15.21;68.96
70968;BME280;58629;48.808;8.820;2023-05-13T11:14:22;97281.06;;;15.37;67.96
70968;BME280;58629;48.808;8.820;2023-05-13T11:19:31;97278.38;;;15.50;67.66
70968;BME280;58629;48.808;8.820;2023-05-13T11:22:07;97282.25;;;15.36;67.71
70968;BME280;58629;48.808;8.820;2023-05-13T11:24:34;97283.34;;;15.26;69.46
70968;BME280;58629;48.808;8.820;2023-05-13T11:27:17;97288.41;;;15.12;69.62
70968;BME280;58629;48.808;8.820;2023-05-13T11:29:54;97289.34;;;15.18;72.42
70968;BME280;58629;48.808;8.820;2023-05-13T11:32:52;97291.72;;;15.16;73.67
70968;BME280;58629;48.808;8.820;2023-05-13T11:35:23;97295.47;;;15.06;76.42
70968;BME280;58629;48.808;8.820;2023-05-13T11:37:48;97286.97;;;14.98;75.85
70968;BME280;58629;48.808;8.820;2023-05-13T11:40:28;97294.31;;;15.07;76.79
70968;BME280;58629;48.808;8.820;2023-05-13T11:42:54;97290.41;;;14.86;78.36
70968;BME280;58629;48.808;8.820;2023-05-13T11:45:22;97283.59;;;14.60;75.54
70968;BME280;58629;48.808;8.820;2023-05-13T11:47:48;97281.50;;;14.55;77.18
70968;BME280;58629;48.808;8.820;2023-05-13T11:50:17;97288.97;;;14.47;75.19
70968;BME280;58629;48.808;8.820;2023-05-13T11:52:44;97284.16;;;14.55;77.35
70968;BME280;58629;48.808;8.820;2023-05-13T11:55:09;97280.41;;;14.65;77.96
70968;BME280;58629;48.808;8.820;2023-05-13T11:57:34;97285.56;;;14.59;74.53
70968;BME280;58629;48.808;8.820;2023-05-13T12:00:06;97276.59;;;14.41;73.58
70968;BME280;58629;48.808;8.820;2023-05-13T12:02:36;97288.31;;;14.43;76.65
70968;BME280;58629;48.808;8.820;2023-05-13T12:05:06;97283.94;;;14.62;75.37
70968;BME280;58629;48.808;8.820;2023-05-13T12:07:32;97282.63;;;14.79;75.61
70968;BME280;58629;48.808;8.820;2023-05-13T12:09:59;97286.00;;;15.05;76.44
70968;BME280;58629;48.808;8.820;2023-05-13T12:12:26;97279.50;;;15.27;74.37
70968;BME280;58629;48.808;8.820;2023-05-13T12:14:52;97283.03;;;15.24;71.41
70968;BME280;58629;48.808;8.820;2023-05-13T12:17:19;97280.34;;;15.37;71.69
70968;BME280;58629;48.808;8.820;2023-05-13T12:22:29;97281.72;;;15.63;72.40
70968;BME280;58629;48.808;8.820;2023-05-13T12:24:55;97278.84;;;15.79;70.22
70968;BME280;58629;48.808;8.820;2023-05-13T12:27:25;97274.41;;;15.76;70.00
70968;BME280;58629;48.808;8.820;2023-05-13T12:29:53;97275.81;;;15.90;70.46
70968;BME280;58629;48.808;8.820;2023-05-13T12:32:19;97272.78;;;16.09;71.03
70968;BME280;58629;48.808;8.820;2023-05-13T12:34:48;97275.69;;;15.93;67.60
70968;BME280;58629;48.808;8.820;2023-05-13T12:37:13;97274.75;;;15.87;67.04
70968;BME280;58629;48.808;8.820;2023-05-13T12:39:40;97272.38;;;15.89;67.81
70968;BME280;58629;48.808;8.820;2023-05-13T12:42:12;97271.72;;;15.76;67.98
70968;BME280;58629;48.808;8.820;2023-05-13T12:44:38;97271.13;;;15.72;66.54
70968;BME280;58629;48.808;8.820;2023-05-13T12:47:05;97264.31;;;16.02;68.42
70968;BME280;58629;48.808;8.820;2023-05-13T12:49:31;97269.88;;;15.95;66.83
70968;BME280;58629;48.808;8.820;2023-05-13T12:51:57;97267.59;;;16.06;67.03
70968;BME280;58629;48.808;8.820;2023-05-13T12:54:22;97268.72;;;15.96;66.39
70968;BME280;58629;48.808;8.820;2023-05-13T12:56:47;97267.00;;;16.11;65.71
70968;BME280;58629;48.808;8.820;2023-05-13T12:59:13;97267.84;;;16.38;65.00
70968;BME280;58629;48.808;8.820;2023-05-13T13:01:39;97258.59;;;16.61;64.69
70968;BME280;58629;48.808;8.820;2023-05-13T13:04:05;97267.72;;;16.91;65.56
70968;BME280;58629;48.808;8.820;2023-05-13T13:06:30;97256.44;;;17.23;63.74
70968;BME280;58629;48.808;8.820;2023-05-13T13:08:56;97256.91;;;17.49;63.11
70968;BME280;58629;48.808;8.820;2023-05-13T13:11:21;97267.00;;;17.35;62.44